sensor_id;sensor_type;location;lat;lon;timestamp;P1;durP1;ratioP1;P2;durP2;ratioP2
6527;SDS011;64597;42.664;23.256;2023-04-03T00:00:59;3.08;;;2.10;;
6527;SDS011;64597;42.664;23.256;2023-04-03T00:03:25;6.80;;;2.33;;
6527;SDS011;64597;42.664;23.256;2023-04-03T00:05:51;3.50;;;2.03;;
6527;SDS011;64597;42.664;23.256;2023-04-03T00:08:16;4.38;;;2.22;;
6527;SDS011;64597;42.664;23.256;2023-04-03T00:10:42;4.28;;;2.17;;
6527;SDS011;64597;42.664;23.256;2023-04-03T00:13:08;2.88;;;2.20;;
6527;SDS011;64597;42.664;23.256;2023-04-03T00:15:35;6.00;;;2.13;;
6527;SDS011;64597;42.664;23.256;2023-04-03T00:18:01;4.10;;;1.83;;
6527;SDS011;64597;42.664;23.256;2023-04-03T00:20:27;4.00;;;1.95;;
6527;SDS011;64597;42.664;23.256;2023-04-03T00:22:53;2.97;;;1.55;;
6527;SDS011;64597;42.664;23.256;2023-04-03T00:25:18;4.43;;;1.98;;
6527;SDS011;64597;42.664;23.256;2023-04-03T00:27:44;3.65;;;1.80;;
6527;SDS011;64597;42.664;23.256;2023-04-03T00:30:10;4.22;;;1.80;;
6527;SDS011;64597;42.664;23.256;2023-04-03T00:32:39;2.80;;;1.60;;
6527;SDS011;64597;42.664;23.256;2023-04-03T00:35:05;3.05;;;1.65;;
6527;SDS011;64597;42.664;23.256;2023-04-03T00:37:31;3.50;;;1.80;;
6527;SDS011;64597;42.664;23.256;2023-04-03T00:39:57;3.00;;;2.28;;
6527;SDS011;64597;42.664;23.256;2023-04-03T00:42:22;3.50;;;1.73;;
6527;SDS011;64597;42.664;23.256;2023-04-03T00:47:14;2.35;;;1.52;;
6527;SDS011;64597;42.664;23.256;2023-04-03T00:49:42;4.32;;;2.50;;
6527;SDS011;64597;42.664;23.256;2023-04-03T00:52:10;3.63;;;1.83;;
6527;SDS011;64597;42.664;23.256;2023-04-03T00:54:41;4.03;;;2.25;;
6527;SDS011;64597;42.664;23.256;2023-04-03T00:57:08;3.15;;;1.75;;
6527;SDS011;64597;42.664;23.256;2023-04-03T00:59:38;3.20;;;1.63;;
6527;SDS011;64597;42.664;23.256;2023-04-03T01:02:09;2.42;;;1.40;;
6527;SDS011;64597;42.664;23.256;2023-04-03T01:04:35;2.47;;;1.48;;
6527;SDS011;64597;42.664;23.256;2023-04-03T01:07:11;2.90;;;1.40;;
6527;SDS011;64597;42.664;23.256;2023-04-03T01:09:41;2.13;;;1.55;;
6527;SDS011;64597;42.664;23.256;2023-04-03T01:12:24;2.92;;;1.60;;
6527;SDS011;64597;42.664;23.256;2023-04-03T01:14:59;3.92;;;1.63;;
6527;SDS011;64597;42.664;23.256;2023-04-03T01:25:32;2.60;;;1.55;;
6527;SDS011;64597;42.664;23.256;2023-04-03T01:27:59;2.75;;;1.20;;
6527;SDS011;64597;42.664;23.256;2023-04-03T01:30:27;5.53;;;1.70;;
6527;SDS011;64597;42.664;23.256;2023-04-03T01:32:56;3.35;;;1.50;;
6527;SDS011;64597;42.664;23.256;2023-04-03T01:35:22;3.75;;;1.95;;
6527;SDS011;64597;42.664;23.256;2023-04-03T01:37:48;4.22;;;1.55;;
6527;SDS011;64597;42.664;23.256;2023-04-03T01:40:13;3.80;;;1.60;;
6527;SDS011;64597;42.664;23.256;2023-04-03T01:42:39;2.80;;;1.75;;
6527;SDS011;64597;42.664;23.256;2023-04-03T01:45:04;3.80;;;1.63;;
6527;SDS011;64597;42.664;23.256;2023-04-03T01:47:30;3.25;;;1.30;;
6527;SDS011;64597;42.664;23.256;2023-04-03T01:49:55;2.83;;;1.38;;
6527;SDS011;64597;42.664;23.256;2023-04-03T01:52:21;2.00;;;1.27;;
6527;SDS011;64597;42.664;23.256;2023-04-03T01:54:46;2.67;;;1.27;;
6527;SDS011;64597;42.664;23.256;2023-04-03T01:57:12;4.68;;;1.63;;
6527;SDS011;64597;42.664;23.256;2023-04-03T01:59:38;1.90;;;1.50;;
6527;SDS011;64597;42.664;23.256;2023-04-03T02:02:04;2.55;;;1.40;;
6527;SDS011;64597;42.664;23.256;2023-04-03T02:04:29;1.38;;;1.00;;
6527;SDS011;64597;42.664;23.256;2023-04-03T02:06:55;3.42;;;1.60;;
6527;SDS011;64597;42.664;23.256;2023-04-03T02:09:23;1.70;;;1.17;;
6527;SDS011;64597;42.664;23.256;2023-04-03T02:11:48;2.38;;;1.30;;
6527;SDS011;64597;42.664;23.256;2023-04-03T02:14:14;2.58;;;1.35;;
6527;SDS011;64597;42.664;23.256;2023-04-03T02:16:39;1.50;;;1.20;;
6527;SDS011;64597;42.664;23.256;2023-04-03T02:19:05;2.17;;;1.02;;
6527;SDS011;64597;42.664;23.256;2023-04-03T02:21:30;2.55;;;1.40;;
6527;SDS011;64597;42.664;23.256;2023-04-03T02:23:56;3.95;;;1.27;;
6527;SDS011;64597;42.664;23.256;2023-04-03T02:26:21;3.00;;;1.23;;
6527;SDS011;64597;42.664;23.256;2023-04-03T02:28:47;2.50;;;1.48;;
6527;SDS011;64597;42.664;23.256;2023-04-03T02:31:12;4.07;;;1.63;;
6527;SDS011;64597;42.664;23.256;2023-04-03T02:33:38;3.10;;;1.70;;
6527;SDS011;64597;42.664;23.256;2023-04-03T02:36:04;1.90;;;1.33;;
6527;SDS011;64597;42.664;23.256;2023-04-03T02:38:31;3.35;;;1.48;;
6527;SDS011;64597;42.664;23.256;2023-04-03T02:41:04;2.88;;;1.38;;
6527;SDS011;64597;42.664;23.256;2023-04-03T02:43:35;6.07;;;1.95;;
6527;SDS011;64597;42.664;23.256;2023-04-03T02:46:01;4.82;;;1.83;;
6527;SDS011;64597;42.664;23.256;2023-04-03T02:48:26;2.78;;;1.77;;
6527;SDS011;64597;42.664;23.256;2023-04-03T02:50:52;4.43;;;1.80;;
6527;SDS011;64597;42.664;23.256;2023-04-03T02:53:18;3.35;;;2.03;;
6527;SDS011;64597;42.664;23.256;2023-04-03T02:55:43;2.80;;;2.03;;
6527;SDS011;64597;42.664;23.256;2023-04-03T02:58:10;2.17;;;1.50;;
6527;SDS011;64597;42.664;23.256;2023-04-03T03:00:36;2.47;;;1.60;;
6527;SDS011;64597;42.664;23.256;2023-04-03T03:03:01;4.63;;;2.00;;
6527;SDS011;64597;42.664;23.256;2023-04-03T03:05:27;2.63;;;1.75;;
6527;SDS011;64597;42.664;23.256;2023-04-03T03:07:53;3.33;;;1.88;;
6527;SDS011;64597;42.664;23.256;2023-04-03T03:10:18;3.70;;;2.10;;
6527;SDS011;64597;42.664;23.256;2023-04-03T03:12:44;1.77;;;1.55;;
6527;SDS011;64597;42.664;23.256;2023-04-03T03:15:10;4.72;;;2.15;;
6527;SDS011;64597;42.664;23.256;2023-04-03T03:17:36;3.55;;;2.45;;
6527;SDS011;64597;42.664;23.256;2023-04-03T03:20:02;2.83;;;1.65;;
6527;SDS011;64597;42.664;23.256;2023-04-03T03:22:28;3.28;;;2.00;;
6527;SDS011;64597;42.664;23.256;2023-04-03T03:24:54;7.15;;;2.67;;
6527;SDS011;64597;42.664;23.256;2023-04-03T03:27:20;4.45;;;2.40;;
6527;SDS011;64597;42.664;23.256;2023-04-03T03:29:45;6.15;;;2.10;;
6527;SDS011;64597;42.664;23.256;2023-04-03T03:32:11;3.13;;;2.10;;
6527;SDS011;64597;42.664;23.256;2023-04-03T03:34:36;4.80;;;1.95;;
6527;SDS011;64597;42.664;23.256;2023-04-03T03:37:02;5.00;;;2.17;;
6527;SDS011;64597;42.664;23.256;2023-04-03T03:39:27;9.50;;;3.30;;
6527;SDS011;64597;42.664;23.256;2023-04-03T03:41:53;5.75;;;2.83;;
6527;SDS011;64597;42.664;23.256;2023-04-03T03:44:18;11.13;;;3.60;;
6527;SDS011;64597;42.664;23.256;2023-04-03T03:46:44;5.22;;;2.90;;
6527;SDS011;64597;42.664;23.256;2023-04-03T03:49:10;7.07;;;3.05;;
6527;SDS011;64597;42.664;23.256;2023-04-03T03:51:36;5.00;;;2.75;;
6527;SDS011;64597;42.664;23.256;2023-04-03T03:54:02;5.43;;;2.33;;
6527;SDS011;64597;42.664;23.256;2023-04-03T03:56:28;7.03;;;3.13;;
6527;SDS011;64597;42.664;23.256;2023-04-03T03:58:54;4.63;;;3.20;;
6527;SDS011;64597;42.664;23.256;2023-04-03T04:01:21;5.07;;;2.90;;
6527;SDS011;64597;42.664;23.256;2023-04-03T04:03:50;8.10;;;3.53;;
6527;SDS011;64597;42.664;23.256;2023-04-03T04:06:16;6.47;;;2.83;;
6527;SDS011;64597;42.664;23.256;2023-04-03T04:08:41;3.67;;;2.55;;
6527;SDS011;64597;42.664;23.256;2023-04-03T04:11:08;7.38;;;3.53;;
6527;SDS011;64597;42.664;23.256;2023-04-03T04:13:33;5.45;;;2.80;;
6527;SDS011;64597;42.664;23.256;2023-04-03T04:15:59;3.75;;;2.97;;
6527;SDS011;64597;42.664;23.256;2023-04-03T04:18:24;8.20;;;3.90;;
6527;SDS011;64597;42.664;23.256;2023-04-03T04:20:50;5.55;;;3.92;;
6527;SDS011;64597;42.664;23.256;2023-04-03T04:23:16;8.75;;;4.20;;
6527;SDS011;64597;42.664;23.256;2023-04-03T04:25:46;7.60;;;3.70;;
6527;SDS011;64597;42.664;23.256;2023-04-03T04:28:13;5.90;;;3.35;;
6527;SDS011;64597;42.664;23.256;2023-04-03T04:30:39;6.65;;;3.80;;
6527;SDS011;64597;42.664;23.256;2023-04-03T04:33:04;7.30;;;3.60;;
6527;SDS011;64597;42.664;23.256;2023-04-03T04:35:30;8.15;;;3.95;;
6527;SDS011;64597;42.664;23.256;2023-04-03T04:37:56;5.43;;;3.53;;
6527;SDS011;64597;42.664;23.256;2023-04-03T04:40:21;5.43;;;3.67;;
6527;SDS011;64597;42.664;23.256;2023-04-03T04:42:47;8.98;;;4.22;;
6527;SDS011;64597;42.664;23.256;2023-04-03T04:45:13;5.13;;;3.60;;
6527;SDS011;64597;42.664;23.256;2023-04-03T04:47:39;5.50;;;4.00;;
6527;SDS011;64597;42.664;23.256;2023-04-03T04:50:05;5.45;;;4.15;;
6527;SDS011;64597;42.664;23.256;2023-04-03T04:52:31;7.22;;;3.97;;
6527;SDS011;64597;42.664;23.256;2023-04-03T04:54:57;6.70;;;4.70;;
6527;SDS011;64597;42.664;23.256;2023-04-03T04:57:22;6.68;;;4.90;;
6527;SDS011;64597;42.664;23.256;2023-04-03T04:59:48;8.65;;;5.05;;
6527;SDS011;64597;42.664;23.256;2023-04-03T05:02:13;7.43;;;5.20;;
6527;SDS011;64597;42.664;23.256;2023-04-03T05:04:38;9.32;;;5.07;;
6527;SDS011;64597;42.664;23.256;2023-04-03T05:07:04;9.30;;;5.18;;
6527;SDS011;64597;42.664;23.256;2023-04-03T05:09:29;9.00;;;4.93;;
6527;SDS011;64597;42.664;23.256;2023-04-03T05:11:55;8.13;;;5.38;;
6527;SDS011;64597;42.664;23.256;2023-04-03T05:14:21;13.35;;;5.82;;
6527;SDS011;64597;42.664;23.256;2023-04-03T05:16:46;7.97;;;5.40;;
6527;SDS011;64597;42.664;23.256;2023-04-03T05:19:12;10.77;;;7.05;;
6527;SDS011;64597;42.664;23.256;2023-04-03T05:21:38;12.30;;;5.75;;
6527;SDS011;64597;42.664;23.256;2023-04-03T05:24:03;12.45;;;5.88;;
6527;SDS011;64597;42.664;23.256;2023-04-03T05:26:30;11.93;;;5.53;;
6527;SDS011;64597;42.664;23.256;2023-04-03T05:28:56;8.95;;;5.97;;
6527;SDS011;64597;42.664;23.256;2023-04-03T05:31:22;11.93;;;6.80;;
6527;SDS011;64597;42.664;23.256;2023-04-03T05:33:48;16.90;;;9.48;;
6527;SDS011;64597;42.664;23.256;2023-04-03T05:36:13;20.27;;;10.95;;
6527;SDS011;64597;42.664;23.256;2023-04-03T05:38:39;15.65;;;9.90;;
6527;SDS011;64597;42.664;23.256;2023-04-03T05:41:05;13.65;;;8.05;;
6527;SDS011;64597;42.664;23.256;2023-04-03T05:43:30;23.40;;;11.10;;
6527;SDS011;64597;42.664;23.256;2023-04-03T05:45:56;20.42;;;10.90;;
6527;SDS011;64597;42.664;23.256;2023-04-03T05:48:22;24.85;;;12.45;;
6527;SDS011;64597;42.664;23.256;2023-04-03T05:50:47;15.98;;;10.38;;
6527;SDS011;64597;42.664;23.256;2023-04-03T05:53:15;20.77;;;11.00;;
6527;SDS011;64597;42.664;23.256;2023-04-03T05:55:46;17.40;;;7.70;;
6527;SDS011;64597;42.664;23.256;2023-04-03T05:58:11;15.40;;;7.72;;
6527;SDS011;64597;42.664;23.256;2023-04-03T06:00:37;9.73;;;7.32;;
6527;SDS011;64597;42.664;23.256;2023-04-03T06:03:02;10.73;;;7.32;;
6527;SDS011;64597;42.664;23.256;2023-04-03T06:05:28;11.57;;;7.30;;
6527;SDS011;64597;42.664;23.256;2023-04-03T06:07:53;12.18;;;7.00;;
6527;SDS011;64597;42.664;23.256;2023-04-03T06:10:19;16.33;;;7.25;;
6527;SDS011;64597;42.664;23.256;2023-04-03T06:12:45;19.65;;;8.50;;
6527;SDS011;64597;42.664;23.256;2023-04-03T06:15:10;20.90;;;9.00;;
6527;SDS011;64597;42.664;23.256;2023-04-03T06:17:36;24.55;;;9.82;;
6527;SDS011;64597;42.664;23.256;2023-04-03T06:20:03;22.30;;;9.77;;
6527;SDS011;64597;42.664;23.256;2023-04-03T06:22:29;16.05;;;8.20;;
6527;SDS011;64597;42.664;23.256;2023-04-03T06:24:55;20.63;;;8.68;;
6527;SDS011;64597;42.664;23.256;2023-04-03T06:27:21;18.23;;;9.98;;
6527;SDS011;64597;42.664;23.256;2023-04-03T06:29:47;11.70;;;6.70;;
6527;SDS011;64597;42.664;23.256;2023-04-03T06:32:13;17.92;;;7.90;;
6527;SDS011;64597;42.664;23.256;2023-04-03T06:34:40;9.27;;;4.78;;
6527;SDS011;64597;42.664;23.256;2023-04-03T06:37:06;8.00;;;5.00;;
6527;SDS011;64597;42.664;23.256;2023-04-03T06:39:35;8.15;;;4.22;;
6527;SDS011;64597;42.664;23.256;2023-04-03T06:42:01;6.53;;;4.80;;
6527;SDS011;64597;42.664;23.256;2023-04-03T06:44:26;7.68;;;4.68;;
6527;SDS011;64597;42.664;23.256;2023-04-03T06:46:51;6.18;;;4.43;;
6527;SDS011;64597;42.664;23.256;2023-04-03T06:49:18;11.25;;;5.03;;
6527;SDS011;64597;42.664;23.256;2023-04-03T06:51:44;7.22;;;4.65;;
6527;SDS011;64597;42.664;23.256;2023-04-03T06:54:10;8.80;;;5.45;;
6527;SDS011;64597;42.664;23.256;2023-04-03T06:56:35;9.50;;;5.38;;
6527;SDS011;64597;42.664;23.256;2023-04-03T06:59:01;9.48;;;4.40;;
6527;SDS011;64597;42.664;23.256;2023-04-03T07:01:28;5.22;;;4.28;;
6527;SDS011;64597;42.664;23.256;2023-04-03T07:03:55;6.22;;;3.63;;
6527;SDS011;64597;42.664;23.256;2023-04-03T07:06:21;10.18;;;4.38;;
6527;SDS011;64597;42.664;23.256;2023-04-03T07:08:47;6.60;;;3.63;;
6527;SDS011;64597;42.664;23.256;2023-04-03T07:11:15;4.30;;;2.92;;
6527;SDS011;64597;42.664;23.256;2023-04-03T07:13:41;4.22;;;2.78;;
6527;SDS011;64597;42.664;23.256;2023-04-03T07:16:07;4.95;;;3.17;;
6527;SDS011;64597;42.664;23.256;2023-04-03T07:18:33;7.45;;;3.88;;
6527;SDS011;64597;42.664;23.256;2023-04-03T07:20:59;7.35;;;3.65;;
6527;SDS011;64597;42.664;23.256;2023-04-03T07:23:25;7.85;;;4.22;;
6527;SDS011;64597;42.664;23.256;2023-04-03T07:25:51;4.45;;;3.20;;
6527;SDS011;64597;42.664;23.256;2023-04-03T07:28:17;5.50;;;2.70;;
6527;SDS011;64597;42.664;23.256;2023-04-03T07:30:48;2.85;;;2.53;;
6527;SDS011;64597;42.664;23.256;2023-04-03T07:33:16;4.45;;;2.67;;
6527;SDS011;64597;42.664;23.256;2023-04-03T07:35:43;5.15;;;3.00;;
6527;SDS011;64597;42.664;23.256;2023-04-03T07:38:09;4.78;;;2.20;;
6527;SDS011;64597;42.664;23.256;2023-04-03T07:40:35;6.78;;;2.63;;
6527;SDS011;64597;42.664;23.256;2023-04-03T07:43:02;4.88;;;2.22;;
6527;SDS011;64597;42.664;23.256;2023-04-03T07:45:27;8.02;;;2.67;;
6527;SDS011;64597;42.664;23.256;2023-04-03T07:47:53;5.45;;;2.90;;
6527;SDS011;64597;42.664;23.256;2023-04-03T07:50:19;7.45;;;4.70;;
6527;SDS011;64597;42.664;23.256;2023-04-03T07:52:44;5.82;;;3.30;;
6527;SDS011;64597;42.664;23.256;2023-04-03T07:55:10;3.10;;;2.55;;
6527;SDS011;64597;42.664;23.256;2023-04-03T07:57:36;3.97;;;2.80;;
6527;SDS011;64597;42.664;23.256;2023-04-03T08:00:03;6.53;;;3.65;;
6527;SDS011;64597;42.664;23.256;2023-04-03T08:02:30;4.65;;;2.35;;
6527;SDS011;64597;42.664;23.256;2023-04-03T08:04:56;3.92;;;2.60;;
6527;SDS011;64597;42.664;23.256;2023-04-03T08:07:22;10.65;;;3.10;;
6527;SDS011;64597;42.664;23.256;2023-04-03T08:09:48;6.35;;;2.50;;
6527;SDS011;64597;42.664;23.256;2023-04-03T08:12:14;3.83;;;2.78;;
6527;SDS011;64597;42.664;23.256;2023-04-03T08:14:39;5.68;;;2.38;;
6527;SDS011;64597;42.664;23.256;2023-04-03T08:17:06;4.22;;;3.03;;
6527;SDS011;64597;42.664;23.256;2023-04-03T08:19:36;7.88;;;3.17;;
6527;SDS011;64597;42.664;23.256;2023-04-03T08:22:05;4.35;;;2.60;;
6527;SDS011;64597;42.664;23.256;2023-04-03T08:24:34;12.32;;;3.78;;
6527;SDS011;64597;42.664;23.256;2023-04-03T08:26:59;17.65;;;5.18;;
6527;SDS011;64597;42.664;23.256;2023-04-03T08:29:25;9.25;;;4.18;;
6527;SDS011;64597;42.664;23.256;2023-04-03T08:31:51;7.13;;;3.38;;
6527;SDS011;64597;42.664;23.256;2023-04-03T08:34:17;17.25;;;4.95;;
6527;SDS011;64597;42.664;23.256;2023-04-03T08:36:43;18.27;;;5.72;;
6527;SDS011;64597;42.664;23.256;2023-04-03T08:39:08;6.07;;;3.22;;
6527;SDS011;64597;42.664;23.256;2023-04-03T08:44:03;8.10;;;3.60;;
6527;SDS011;64597;42.664;23.256;2023-04-03T08:47:20;27.85;;;7.32;;
6527;SDS011;64597;42.664;23.256;2023-04-03T08:50:11;7.40;;;4.15;;
6527;SDS011;64597;42.664;23.256;2023-04-03T08:52:39;7.90;;;4.25;;
6527;SDS011;64597;42.664;23.256;2023-04-03T08:55:22;7.63;;;4.70;;
6527;SDS011;64597;42.664;23.256;2023-04-03T08:57:48;7.90;;;5.03;;
6527;SDS011;64597;42.664;23.256;2023-04-03T09:00:23;8.90;;;5.78;;
6527;SDS011;64597;42.664;23.256;2023-04-03T09:02:54;10.30;;;5.68;;
6527;SDS011;64597;42.664;23.256;2023-04-03T09:08:04;10.23;;;5.55;;
6527;SDS011;64597;42.664;23.256;2023-04-03T09:10:39;8.35;;;6.05;;
6527;SDS011;64597;42.664;23.256;2023-04-03T09:13:13;10.18;;;6.50;;
6527;SDS011;64597;42.664;23.256;2023-04-03T09:15:57;11.25;;;7.30;;
6527;SDS011;64597;42.664;23.256;2023-04-03T09:18:27;13.52;;;8.95;;
6527;SDS011;64597;42.664;23.256;2023-04-03T09:26:16;11.70;;;7.78;;
6527;SDS011;64597;42.664;23.256;2023-04-03T09:28:44;15.18;;;9.15;;
6527;SDS011;64597;42.664;23.256;2023-04-03T09:36:04;11.95;;;7.90;;
6527;SDS011;64597;42.664;23.256;2023-04-03T09:38:30;9.70;;;7.15;;
6527;SDS011;64597;42.664;23.256;2023-04-03T09:43:40;7.93;;;5.97;;
6527;SDS011;64597;42.664;23.256;2023-04-03T09:46:31;9.18;;;4.97;;
6527;SDS011;64597;42.664;23.256;2023-04-03T09:51:30;9.93;;;3.13;;
6527;SDS011;64597;42.664;23.256;2023-04-03T09:53:57;4.75;;;2.83;;
6527;SDS011;64597;42.664;23.256;2023-04-03T09:56:26;4.18;;;2.50;;
6527;SDS011;64597;42.664;23.256;2023-04-03T10:06:44;4.28;;;1.85;;
6527;SDS011;64597;42.664;23.256;2023-04-03T10:09:31;2.83;;;2.20;;
6527;SDS011;64597;42.664;23.256;2023-04-03T10:14:34;2.75;;;1.65;;
6527;SDS011;64597;42.664;23.256;2023-04-03T10:17:17;5.55;;;2.72;;
6527;SDS011;64597;42.664;23.256;2023-04-03T10:19:46;2.67;;;1.65;;
6527;SDS011;64597;42.664;23.256;2023-04-03T10:22:18;2.67;;;1.73;;
6527;SDS011;64597;42.664;23.256;2023-04-03T10:33:59;4.25;;;1.50;;
6527;SDS011;64597;42.664;23.256;2023-04-03T10:42:18;5.35;;;2.03;;
6527;SDS011;64597;42.664;23.256;2023-04-03T10:47:44;4.43;;;1.73;;
6527;SDS011;64597;42.664;23.256;2023-04-03T11:05:02;2.05;;;1.55;;
6527;SDS011;64597;42.664;23.256;2023-04-03T11:07:43;2.55;;;1.50;;
6527;SDS011;64597;42.664;23.256;2023-04-03T11:10:14;4.45;;;1.90;;
6527;SDS011;64597;42.664;23.256;2023-04-03T11:12:47;1.60;;;1.42;;
6527;SDS011;64597;42.664;23.256;2023-04-03T11:15:18;3.05;;;1.55;;
6527;SDS011;64597;42.664;23.256;2023-04-03T11:23:03;5.13;;;2.08;;
6527;SDS011;64597;42.664;23.256;2023-04-03T11:25:32;3.90;;;1.92;;
6527;SDS011;64597;42.664;23.256;2023-04-03T11:28:03;3.15;;;1.90;;
6527;SDS011;64597;42.664;23.256;2023-04-03T11:36:25;2.90;;;2.22;;
6527;SDS011;64597;42.664;23.256;2023-04-03T11:38:56;5.88;;;2.80;;
6527;SDS011;64597;42.664;23.256;2023-04-03T11:41:26;3.85;;;2.60;;
6527;SDS011;64597;42.664;23.256;2023-04-03T11:44:23;5.50;;;3.17;;
6527;SDS011;64597;42.664;23.256;2023-04-03T11:46:59;5.00;;;3.15;;
6527;SDS011;64597;42.664;23.256;2023-04-03T11:55:35;5.50;;;2.83;;
6527;SDS011;64597;42.664;23.256;2023-04-03T12:05:56;3.30;;;2.40;;
6527;SDS011;64597;42.664;23.256;2023-04-03T12:16:33;3.33;;;2.53;;
6527;SDS011;64597;42.664;23.256;2023-04-03T12:24:29;3.83;;;2.45;;
6527;SDS011;64597;42.664;23.256;2023-04-03T12:34:51;4.60;;;2.28;;
6527;SDS011;64597;42.664;23.256;2023-04-03T12:40:25;5.32;;;2.38;;
6527;SDS011;64597;42.664;23.256;2023-04-03T12:43:09;4.95;;;3.10;;
6527;SDS011;64597;42.664;23.256;2023-04-03T12:45:47;4.65;;;3.35;;
6527;SDS011;64597;42.664;23.256;2023-04-03T12:48:18;4.60;;;2.60;;
6527;SDS011;64597;42.664;23.256;2023-04-03T12:50:47;3.97;;;2.90;;
6527;SDS011;64597;42.664;23.256;2023-04-03T12:53:25;4.13;;;2.33;;
6527;SDS011;64597;42.664;23.256;2023-04-03T12:55:59;5.63;;;3.30;;
6527;SDS011;64597;42.664;23.256;2023-04-03T12:58:45;4.70;;;2.92;;
6527;SDS011;64597;42.664;23.256;2023-04-03T13:01:12;4.03;;;2.83;;
6527;SDS011;64597;42.664;23.256;2023-04-03T13:06:19;6.13;;;3.00;;
6527;SDS011;64597;42.664;23.256;2023-04-03T13:08:50;4.10;;;3.30;;
6527;SDS011;64597;42.664;23.256;2023-04-03T13:11:16;3.85;;;3.00;;
6527;SDS011;64597;42.664;23.256;2023-04-03T13:13:55;5.45;;;3.63;;
6527;SDS011;64597;42.664;23.256;2023-04-03T13:16:26;6.38;;;3.83;;
6527;SDS011;64597;42.664;23.256;2023-04-03T13:18:53;4.65;;;3.55;;
6527;SDS011;64597;42.664;23.256;2023-04-03T13:21:24;6.43;;;3.58;;
6527;SDS011;64597;42.664;23.256;2023-04-03T13:23:54;5.78;;;3.13;;
6527;SDS011;64597;42.664;23.256;2023-04-03T13:26:22;5.75;;;3.85;;
6527;SDS011;64597;42.664;23.256;2023-04-03T13:28:51;6.05;;;3.75;;
6527;SDS011;64597;42.664;23.256;2023-04-03T13:34:02;6.03;;;4.22;;
6527;SDS011;64597;42.664;23.256;2023-04-03T13:36:36;5.85;;;4.40;;
6527;SDS011;64597;42.664;23.256;2023-04-03T13:41:41;5.07;;;3.95;;
6527;SDS011;64597;42.664;23.256;2023-04-03T13:46:57;5.60;;;3.17;;
6527;SDS011;64597;42.664;23.256;2023-04-03T13:49:29;5.18;;;3.42;;
6527;SDS011;64597;42.664;23.256;2023-04-03T13:52:02;6.10;;;3.65;;
6527;SDS011;64597;42.664;23.256;2023-04-03T13:54:47;4.20;;;3.78;;
6527;SDS011;64597;42.664;23.256;2023-04-03T13:57:17;4.78;;;3.55;;
6527;SDS011;64597;42.664;23.256;2023-04-03T13:59:43;4.32;;;3.70;;
6527;SDS011;64597;42.664;23.256;2023-04-03T14:02:53;4.07;;;3.55;;
6527;SDS011;64597;42.664;23.256;2023-04-03T14:04:59;6.18;;;3.78;;
6527;SDS011;64597;42.664;23.256;2023-04-03T14:07:27;3.80;;;3.13;;
6527;SDS011;64597;42.664;23.256;2023-04-03T14:09:54;5.20;;;3.35;;
6527;SDS011;64597;42.664;23.256;2023-04-03T14:14:52;4.00;;;3.00;;
6527;SDS011;64597;42.664;23.256;2023-04-03T14:17:20;5.53;;;3.35;;
6527;SDS011;64597;42.664;23.256;2023-04-03T14:19:48;4.60;;;3.30;;
6527;SDS011;64597;42.664;23.256;2023-04-03T14:22:19;3.80;;;2.63;;
6527;SDS011;64597;42.664;23.256;2023-04-03T14:24:48;3.53;;;2.72;;
6527;SDS011;64597;42.664;23.256;2023-04-03T14:27:33;6.78;;;2.63;;
6527;SDS011;64597;42.664;23.256;2023-04-03T14:30:00;5.88;;;3.15;;
6527;SDS011;64597;42.664;23.256;2023-04-03T14:32:28;4.10;;;3.17;;
6527;SDS011;64597;42.664;23.256;2023-04-03T14:34:53;4.25;;;2.63;;
6527;SDS011;64597;42.664;23.256;2023-04-03T14:37:24;4.07;;;2.85;;
6527;SDS011;64597;42.664;23.256;2023-04-03T14:39:53;3.92;;;2.72;;
6527;SDS011;64597;42.664;23.256;2023-04-03T14:42:20;4.45;;;2.97;;
6527;SDS011;64597;42.664;23.256;2023-04-03T14:44:48;3.58;;;2.25;;
6527;SDS011;64597;42.664;23.256;2023-04-03T14:47:15;3.58;;;2.50;;
6527;SDS011;64597;42.664;23.256;2023-04-03T14:49:43;2.72;;;2.05;;
6527;SDS011;64597;42.664;23.256;2023-04-03T14:52:31;3.33;;;2.88;;
6527;SDS011;64597;42.664;23.256;2023-04-03T14:54:56;3.25;;;2.38;;
6527;SDS011;64597;42.664;23.256;2023-04-03T14:57:25;2.75;;;2.17;;
6527;SDS011;64597;42.664;23.256;2023-04-03T14:59:52;3.55;;;2.47;;
6527;SDS011;64597;42.664;23.256;2023-04-03T15:04:55;2.85;;;2.30;;
6527;SDS011;64597;42.664;23.256;2023-04-03T15:07:22;4.82;;;2.45;;
6527;SDS011;64597;42.664;23.256;2023-04-03T15:09:50;4.78;;;2.72;;
6527;SDS011;64597;42.664;23.256;2023-04-03T15:12:15;5.25;;;2.78;;
6527;SDS011;64597;42.664;23.256;2023-04-03T15:14:41;3.70;;;2.10;;
6527;SDS011;64597;42.664;23.256;2023-04-03T15:17:09;3.92;;;2.42;;
6527;SDS011;64597;42.664;23.256;2023-04-03T15:19:41;3.33;;;2.03;;
6527;SDS011;64597;42.664;23.256;2023-04-03T15:22:06;3.92;;;2.78;;
6527;SDS011;64597;42.664;23.256;2023-04-03T15:24:33;3.38;;;2.05;;
6527;SDS011;64597;42.664;23.256;2023-04-03T15:26:59;3.22;;;2.45;;
6527;SDS011;64597;42.664;23.256;2023-04-03T15:29:26;3.28;;;1.95;;
6527;SDS011;64597;42.664;23.256;2023-04-03T15:31:52;3.20;;;2.13;;
6527;SDS011;64597;42.664;23.256;2023-04-03T15:34:18;4.20;;;2.30;;
6527;SDS011;64597;42.664;23.256;2023-04-03T15:36:44;3.50;;;2.60;;
6527;SDS011;64597;42.664;23.256;2023-04-03T15:39:09;3.17;;;2.20;;
6527;SDS011;64597;42.664;23.256;2023-04-03T15:41:35;3.80;;;2.47;;
6527;SDS011;64597;42.664;23.256;2023-04-03T15:44:00;4.43;;;2.90;;
6527;SDS011;64597;42.664;23.256;2023-04-03T15:46:26;3.65;;;2.88;;
6527;SDS011;64597;42.664;23.256;2023-04-03T15:48:51;5.72;;;3.75;;
6527;SDS011;64597;42.664;23.256;2023-04-03T15:51:17;7.07;;;3.63;;
6527;SDS011;64597;42.664;23.256;2023-04-03T15:53:42;6.05;;;3.08;;
6527;SDS011;64597;42.664;23.256;2023-04-03T15:56:08;5.40;;;3.28;;
6527;SDS011;64597;42.664;23.256;2023-04-03T15:58:34;6.63;;;3.67;;
6527;SDS011;64597;42.664;23.256;2023-04-03T16:01:00;5.53;;;3.22;;
6527;SDS011;64597;42.664;23.256;2023-04-03T16:03:27;6.32;;;3.35;;
6527;SDS011;64597;42.664;23.256;2023-04-03T16:05:53;5.20;;;3.55;;
6527;SDS011;64597;42.664;23.256;2023-04-03T16:08:18;5.72;;;3.17;;
6527;SDS011;64597;42.664;23.256;2023-04-03T16:10:44;4.07;;;3.22;;
6527;SDS011;64597;42.664;23.256;2023-04-03T16:15:38;5.10;;;3.13;;
6527;SDS011;64597;42.664;23.256;2023-04-03T16:18:05;5.68;;;3.10;;
6527;SDS011;64597;42.664;23.256;2023-04-03T16:20:31;6.18;;;3.13;;
6527;SDS011;64597;42.664;23.256;2023-04-03T16:22:57;4.97;;;3.17;;
6527;SDS011;64597;42.664;23.256;2023-04-03T16:25:25;5.88;;;3.53;;
6527;SDS011;64597;42.664;23.256;2023-04-03T16:27:51;7.82;;;3.45;;
6527;SDS011;64597;42.664;23.256;2023-04-03T16:30:17;5.70;;;3.20;;
6527;SDS011;64597;42.664;23.256;2023-04-03T16:32:42;5.35;;;3.08;;
6527;SDS011;64597;42.664;23.256;2023-04-03T16:35:08;6.10;;;3.10;;
6527;SDS011;64597;42.664;23.256;2023-04-03T16:37:38;3.33;;;2.95;;
6527;SDS011;64597;42.664;23.256;2023-04-03T16:40:04;4.43;;;2.05;;
6527;SDS011;64597;42.664;23.256;2023-04-03T16:42:31;3.40;;;2.00;;
6527;SDS011;64597;42.664;23.256;2023-04-03T16:44:57;3.08;;;2.03;;
6527;SDS011;64597;42.664;23.256;2023-04-03T16:47:25;7.25;;;2.33;;
6527;SDS011;64597;42.664;23.256;2023-04-03T16:49:50;4.38;;;2.30;;
6527;SDS011;64597;42.664;23.256;2023-04-03T16:52:15;3.17;;;1.73;;
6527;SDS011;64597;42.664;23.256;2023-04-03T16:54:41;2.67;;;1.88;;
6527;SDS011;64597;42.664;23.256;2023-04-03T16:57:06;3.35;;;2.20;;
6527;SDS011;64597;42.664;23.256;2023-04-03T16:59:32;2.95;;;2.20;;
6527;SDS011;64597;42.664;23.256;2023-04-03T17:01:57;3.08;;;1.88;;
6527;SDS011;64597;42.664;23.256;2023-04-03T17:04:23;2.08;;;1.42;;
6527;SDS011;64597;42.664;23.256;2023-04-03T17:06:48;3.72;;;1.83;;
6527;SDS011;64597;42.664;23.256;2023-04-03T17:09:14;6.68;;;1.98;;
6527;SDS011;64597;42.664;23.256;2023-04-03T17:11:40;2.63;;;1.30;;